createdAt,value
2022-11-24T00:06:31.209Z,-0.10
2022-11-24T00:16:36.331Z,-0.10
2022-11-24T00:26:41.112Z,-0.10
2022-11-24T00:36:44.584Z,-0.10
2022-11-24T00:46:49.504Z,-0.20
2022-11-24T00:56:52.962Z,-0.10
2022-11-24T01:06:57.794Z,0.00
2022-11-24T01:17:01.265Z,0.00
2022-11-24T01:27:06.121Z,0.10
2022-11-24T01:37:10.036Z,0.20
2022-11-24T01:47:34.495Z,0.20
2022-11-24T01:57:44.145Z,0.20
2022-11-24T02:07:50.046Z,0.30
2022-11-24T02:17:53.558Z,0.30
2022-11-24T02:28:00.252Z,0.30
2022-11-24T02:38:03.779Z,0.30
2022-11-24T02:48:09.181Z,0.30
2022-11-24T02:58:12.597Z,0.20
2022-11-24T03:08:17.485Z,0.20
2022-11-24T03:18:21.068Z,0.30
2022-11-24T03:28:25.906Z,0.30
2022-11-24T03:38:29.829Z,0.30
2022-11-24T03:48:34.661Z,0.30
2022-11-24T03:58:38.108Z,0.30
2022-11-24T04:08:42.928Z,0.30
2022-11-24T04:18:46.470Z,0.30
2022-11-24T04:28:51.248Z,0.30
2022-11-24T04:39:24.144Z,0.30
2022-11-24T04:49:20.339Z,0.30
2022-11-24T04:59:23.772Z,0.30
2022-11-24T05:09:41.998Z,0.30
2022-11-24T05:19:52.119Z,0.20
2022-11-24T05:29:56.949Z,0.20
2022-11-24T05:40:00.453Z,0.20
2022-11-24T05:50:06.057Z,0.20
2022-11-24T06:00:11.919Z,0.20
2022-11-24T06:10:20.713Z,0.20
2022-11-24T06:20:29.729Z,0.10
2022-11-24T06:30:36.212Z,0.30
2022-11-24T06:40:39.694Z,0.30
2022-11-24T06:50:44.637Z,0.30
2022-11-24T07:00:48.872Z,0.30
2022-11-24T07:10:53.941Z,0.40
2022-11-24T07:20:57.410Z,0.50
2022-11-24T07:31:08.094Z,0.50
2022-11-24T07:41:14.266Z,0.50
2022-11-24T07:51:19.185Z,0.60
2022-11-24T08:01:22.812Z,0.70
2022-11-24T08:11:28.645Z,0.70
2022-11-24T08:21:32.601Z,0.70
2022-11-24T08:31:40.550Z,0.70
2022-11-24T08:41:43.991Z,0.70
2022-11-24T08:51:50.057Z,0.80
2022-11-24T09:01:53.501Z,0.90
2022-11-24T09:11:58.482Z,0.90
2022-11-24T09:22:01.936Z,1.00
2022-11-24T09:32:07.248Z,1.00
2022-11-24T09:42:17.299Z,0.90
2022-11-24T09:52:40.512Z,0.90
2022-11-24T10:02:45.000Z,0.90
2022-11-24T10:13:00.648Z,0.90
2022-11-24T10:23:25.332Z,0.90
2022-11-24T10:33:31.214Z,1.20
2022-11-24T10:43:34.965Z,1.20
2022-11-24T10:53:42.957Z,1.20
2022-11-24T11:03:49.277Z,1.10
2022-11-24T11:14:03.435Z,1.10
2022-11-24T11:24:17.604Z,0.90
2022-11-24T11:34:29.798Z,0.80
2022-11-24T11:44:40.525Z,0.90
2022-11-24T11:55:09.520Z,0.90
2022-11-24T12:05:24.048Z,0.90
2022-11-24T12:15:37.373Z,0.90
2022-11-24T12:25:46.956Z,0.80
2022-11-24T12:36:03.678Z,0.80
2022-11-24T12:46:18.733Z,0.80
2022-11-24T12:56:35.704Z,0.80
2022-11-24T13:06:49.809Z,0.80
2022-11-24T13:27:41.385Z,0.70
2022-11-24T13:37:52.965Z,0.60
2022-11-24T13:47:56.469Z,0.60
2022-11-24T13:58:33.339Z,0.60
2022-11-24T14:08:39.660Z,0.50
2022-11-24T14:18:46.688Z,0.40
2022-11-24T14:28:51.230Z,0.30
2022-11-24T14:38:56.103Z,0.20
2022-11-24T14:48:59.713Z,0.20
2022-11-24T14:59:06.182Z,0.10
2022-11-24T15:09:24.031Z,0.10
2022-11-24T15:19:34.172Z,0.10
2022-11-24T15:29:37.693Z,0.10
2022-11-24T15:39:42.536Z,0.00
2022-11-24T15:49:45.959Z,0.00
2022-11-24T15:59:50.785Z,0.00
2022-11-24T16:09:54.197Z,-0.10
2022-11-24T16:20:00.812Z,-0.10
2022-11-24T16:30:05.301Z,-0.10
2022-11-24T16:40:11.831Z,-0.10
2022-11-24T16:50:15.348Z,-0.20
2022-11-24T17:00:21.031Z,-0.10
2022-11-24T17:10:24.618Z,-0.10
2022-11-24T17:20:31.355Z,0.00
2022-11-24T17:30:34.971Z,0.10
2022-11-24T17:40:39.796Z,0.10
2022-11-24T17:50:43.530Z,0.10
2022-11-24T18:00:51.472Z,0.10
2022-11-24T18:10:55.065Z,0.00
2022-11-24T18:21:01.668Z,0.00
2022-11-24T18:31:07.217Z,0.00
2022-11-24T18:41:14.057Z,-0.10
2022-11-24T18:51:18.649Z,0.00
2022-11-24T19:01:27.191Z,0.00
2022-11-24T19:11:35.352Z,0.00
2022-11-24T19:21:42.187Z,-0.10
2022-11-24T19:31:45.639Z,0.00
2022-11-24T19:41:50.822Z,-0.10
2022-11-24T19:51:55.020Z,0.00
2022-11-24T20:02:01.843Z,0.00
2022-11-24T20:12:06.750Z,0.00
2022-11-24T20:22:11.632Z,-0.10
2022-11-24T20:32:19.542Z,-0.10
2022-11-24T20:42:24.524Z,0.00
2022-11-24T20:52:28.128Z,-0.10
2022-11-24T21:02:32.962Z,-0.10
2022-11-24T21:12:36.748Z,-0.10
2022-11-24T21:22:41.819Z,-0.10
2022-11-24T21:32:45.343Z,-0.10
2022-11-24T21:42:50.112Z,-0.10
2022-11-24T21:52:53.581Z,-0.10
2022-11-24T22:02:58.411Z,-0.10
2022-11-24T22:13:02.447Z,-0.10
2022-11-24T22:23:07.393Z,0.00
2022-11-24T22:33:10.857Z,0.00
2022-11-24T22:43:18.906Z,0.00
2022-11-24T22:53:26.211Z,0.00
2022-11-24T23:03:31.172Z,-0.10
2022-11-24T23:13:35.053Z,0.00
2022-11-24T23:23:40.943Z,0.00
2022-11-24T23:33:44.700Z,0.00
2022-11-24T23:43:49.572Z,0.10
2022-11-24T23:53:53.758Z,0.10
